sensor_id;sensor_type;location;lat;lon;timestamp;pressure;altitude;pressure_sealevel;temperature;humidity
52983;BME280;48698;45.736;13.926;2022-08-24T00:01:14;97627.66;;;20.12;100.00
52983;BME280;48698;45.736;13.926;2022-08-24T00:06:19;97631.97;;;20.15;100.00
52983;BME280;48698;45.736;13.926;2022-08-24T00:11:22;97621.56;;;20.10;100.00
52983;BME280;48698;45.736;13.926;2022-08-24T00:16:27;97590.84;;;19.82;100.00
52983;BME280;48698;45.736;13.926;2022-08-24T00:21:31;97617.84;;;19.92;100.00
52983;BME280;48698;45.736;13.926;2022-08-24T00:26:34;97621.75;;;19.78;100.00
52983;BME280;48698;45.736;13.926;2022-08-24T00:31:38;97608.72;;;19.83;100.00
52983;BME280;48698;45.736;13.926;2022-08-24T00:36:41;97619.41;;;19.94;100.00
52983;BME280;48698;45.736;13.926;2022-08-24T00:41:46;97626.91;;;19.91;100.00
52983;BME280;48698;45.736;13.926;2022-08-24T00:47:00;97623.63;;;19.87;100.00
52983;BME280;48698;45.736;13.926;2022-08-24T00:52:13;97624.88;;;19.83;100.00
52983;BME280;48698;45.736;13.926;2022-08-24T00:57:19;97623.72;;;19.76;100.00
52983;BME280;48698;45.736;13.926;2022-08-24T01:02:26;97623.41;;;19.70;100.00
52983;BME280;48698;45.736;13.926;2022-08-24T01:07:34;97609.19;;;19.58;100.00
52983;BME280;48698;45.736;13.926;2022-08-24T01:12:42;97616.69;;;19.54;100.00
52983;BME280;48698;45.736;13.926;2022-08-24T01:18:01;97611.72;;;19.59;100.00
52983;BME280;48698;45.736;13.926;2022-08-24T01:23:36;97586.28;;;19.43;100.00
52983;BME280;48698;45.736;13.926;2022-08-24T01:28:41;97607.56;;;19.25;100.00
52983;BME280;48698;45.736;13.926;2022-08-24T01:33:51;97605.00;;;18.82;100.00
52983;BME280;48698;45.736;13.926;2022-08-24T01:38:57;97615.50;;;18.85;100.00
52983;BME280;48698;45.736;13.926;2022-08-24T01:44:02;97563.50;;;18.32;100.00
52983;BME280;48698;45.736;13.926;2022-08-24T01:49:04;97615.19;;;18.79;100.00
52983;BME280;48698;45.736;13.926;2022-08-24T01:54:08;97607.69;;;18.82;100.00
52983;BME280;48698;45.736;13.926;2022-08-24T01:59:11;97594.75;;;18.76;100.00
52983;BME280;48698;45.736;13.926;2022-08-24T02:04:15;97599.38;;;18.85;100.00
52983;BME280;48698;45.736;13.926;2022-08-24T02:09:19;97587.19;;;18.70;100.00
52983;BME280;48698;45.736;13.926;2022-08-24T02:14:22;97587.75;;;18.85;100.00
52983;BME280;48698;45.736;13.926;2022-08-24T02:19:30;97590.41;;;18.64;100.00
52983;BME280;48698;45.736;13.926;2022-08-24T02:24:33;97593.38;;;18.18;100.00
52983;BME280;48698;45.736;13.926;2022-08-24T02:29:36;97584.50;;;17.84;100.00
52983;BME280;48698;45.736;13.926;2022-08-24T02:34:39;97584.84;;;18.02;100.00
52983;BME280;48698;45.736;13.926;2022-08-24T02:39:42;97602.59;;;17.82;100.00
52983;BME280;48698;45.736;13.926;2022-08-24T02:44:45;97584.41;;;17.86;100.00
52983;BME280;48698;45.736;13.926;2022-08-24T02:49:50;97611.13;;;17.87;100.00
52983;BME280;48698;45.736;13.926;2022-08-24T02:54:52;97556.72;;;17.63;100.00
52983;BME280;48698;45.736;13.926;2022-08-24T02:59:55;97592.78;;;18.03;100.00
52983;BME280;48698;45.736;13.926;2022-08-24T03:04:58;97596.16;;;18.17;100.00
52983;BME280;48698;45.736;13.926;2022-08-24T03:10:01;97588.59;;;18.22;100.00
52983;BME280;48698;45.736;13.926;2022-08-24T03:15:05;97584.50;;;17.84;100.00
52983;BME280;48698;45.736;13.926;2022-08-24T03:20:15;97596.22;;;17.83;100.00
52983;BME280;48698;45.736;13.926;2022-08-24T03:25:19;97594.50;;;17.93;100.00
52983;BME280;48698;45.736;13.926;2022-08-24T03:30:22;97592.56;;;17.73;100.00
52983;BME280;48698;45.736;13.926;2022-08-24T03:35:25;97599.16;;;17.36;100.00
52983;BME280;48698;45.736;13.926;2022-08-24T03:40:28;97613.53;;;17.24;100.00
52983;BME280;48698;45.736;13.926;2022-08-24T03:45:34;97615.69;;;17.08;100.00
52983;BME280;48698;45.736;13.926;2022-08-24T03:50:37;97623.00;;;16.94;100.00
52983;BME280;48698;45.736;13.926;2022-08-24T03:55:40;97616.47;;;16.51;100.00
52983;BME280;48698;45.736;13.926;2022-08-24T04:00:43;97636.03;;;16.17;100.00
52983;BME280;48698;45.736;13.926;2022-08-24T04:05:46;97646.91;;;16.02;100.00
52983;BME280;48698;45.736;13.926;2022-08-24T04:10:49;97652.75;;;15.84;100.00
52983;BME280;48698;45.736;13.926;2022-08-24T04:15:52;97662.25;;;16.24;100.00
52983;BME280;48698;45.736;13.926;2022-08-24T04:20:55;97660.66;;;15.85;100.00
52983;BME280;48698;45.736;13.926;2022-08-24T04:26:03;97666.88;;;15.86;100.00
52983;BME280;48698;45.736;13.926;2022-08-24T04:31:06;97629.16;;;15.89;100.00
52983;BME280;48698;45.736;13.926;2022-08-24T04:36:09;97645.00;;;15.92;100.00
52983;BME280;48698;45.736;13.926;2022-08-24T04:41:13;97661.41;;;15.87;100.00
52983;BME280;48698;45.736;13.926;2022-08-24T04:46:28;97682.63;;;16.27;100.00
52983;BME280;48698;45.736;13.926;2022-08-24T04:51:31;97662.47;;;16.34;100.00
52983;BME280;48698;45.736;13.926;2022-08-24T04:56:37;97693.25;;;16.16;100.00
52983;BME280;48698;45.736;13.926;2022-08-24T05:01:41;97720.38;;;16.24;100.00
52983;BME280;48698;45.736;13.926;2022-08-24T05:06:44;97524.69;;;15.04;100.00
52983;BME280;48698;45.736;13.926;2022-08-24T05:11:53;97527.84;;;15.83;100.00
52983;BME280;48698;45.736;13.926;2022-08-24T05:16:59;97613.38;;;17.03;100.00
52983;BME280;48698;45.736;13.926;2022-08-24T05:22:03;97663.34;;;18.17;100.00
52983;BME280;48698;45.736;13.926;2022-08-24T05:27:07;97477.50;;;18.00;100.00
52983;BME280;48698;45.736;13.926;2022-08-24T05:32:16;97652.34;;;19.68;100.00
52983;BME280;48698;45.736;13.926;2022-08-24T05:37:19;97660.69;;;19.95;100.00
52983;BME280;48698;45.736;13.926;2022-08-24T05:42:22;97655.94;;;20.18;100.00
52983;BME280;48698;45.736;13.926;2022-08-24T05:47:25;97576.28;;;19.94;100.00
52983;BME280;48698;45.736;13.926;2022-08-24T05:52:28;97670.09;;;20.50;100.00
52983;BME280;48698;45.736;13.926;2022-08-24T05:57:32;97646.97;;;20.57;100.00
52983;BME280;48698;45.736;13.926;2022-08-24T06:02:35;97453.63;;;19.41;100.00
52983;BME280;48698;45.736;13.926;2022-08-24T06:07:39;97644.72;;;20.81;100.00
52983;BME280;48698;45.736;13.926;2022-08-24T06:12:41;97511.03;;;20.00;100.00
52983;BME280;48698;45.736;13.926;2022-08-24T06:17:44;97529.06;;;20.19;100.00
52983;BME280;48698;45.736;13.926;2022-08-24T06:22:47;97541.88;;;20.46;100.00
52983;BME280;48698;45.736;13.926;2022-08-24T06:27:49;97481.53;;;20.18;100.00
52983;BME280;48698;45.736;13.926;2022-08-24T06:32:52;97570.25;;;20.88;100.00
52983;BME280;48698;45.736;13.926;2022-08-24T06:37:55;97628.78;;;21.36;100.00
52983;BME280;48698;45.736;13.926;2022-08-24T06:43:01;97458.56;;;20.43;100.00
52983;BME280;48698;45.736;13.926;2022-08-24T06:48:05;97532.31;;;20.99;100.00
52983;BME280;48698;45.736;13.926;2022-08-24T06:53:08;97561.06;;;21.47;100.00
52983;BME280;48698;45.736;13.926;2022-08-24T06:58:11;97621.63;;;22.00;100.00
52983;BME280;48698;45.736;13.926;2022-08-24T07:03:15;97662.47;;;22.25;100.00
52983;BME280;48698;45.736;13.926;2022-08-24T07:08:19;97656.28;;;22.42;100.00
52983;BME280;48698;45.736;13.926;2022-08-24T07:13:22;97554.06;;;21.81;100.00
52983;BME280;48698;45.736;13.926;2022-08-24T07:18:25;97507.53;;;21.60;100.00
52983;BME280;48698;45.736;13.926;2022-08-24T07:23:28;97486.72;;;21.70;100.00
52983;BME280;48698;45.736;13.926;2022-08-24T07:28:43;97539.19;;;22.04;100.00
52983;BME280;48698;45.736;13.926;2022-08-24T07:33:46;97588.72;;;22.50;100.00
52983;BME280;48698;45.736;13.926;2022-08-24T07:38:51;97675.94;;;23.06;100.00
52983;BME280;48698;45.736;13.926;2022-08-24T07:43:54;97677.84;;;23.32;100.00
52983;BME280;48698;45.736;13.926;2022-08-24T07:48:57;97668.56;;;23.52;100.00
52983;BME280;48698;45.736;13.926;2022-08-24T07:54:20;97660.72;;;23.92;100.00
52983;BME280;48698;45.736;13.926;2022-08-24T07:59:22;97615.84;;;23.72;100.00
52983;BME280;48698;45.736;13.926;2022-08-24T08:04:25;97678.25;;;24.06;100.00
52983;BME280;48698;45.736;13.926;2022-08-24T08:09:29;97659.91;;;24.34;100.00
52983;BME280;48698;45.736;13.926;2022-08-24T08:14:31;97658.84;;;24.68;100.00
52983;BME280;48698;45.736;13.926;2022-08-24T08:19:34;97673.00;;;24.96;100.00
52983;BME280;48698;45.736;13.926;2022-08-24T08:24:39;97702.22;;;24.94;100.00
52983;BME280;48698;45.736;13.926;2022-08-24T08:29:43;97678.69;;;25.67;100.00
52983;BME280;48698;45.736;13.926;2022-08-24T08:34:46;97675.44;;;25.80;100.00
52983;BME280;48698;45.736;13.926;2022-08-24T08:39:50;97604.50;;;25.90;100.00
52983;BME280;48698;45.736;13.926;2022-08-24T08:45:14;97549.50;;;25.72;100.00
52983;BME280;48698;45.736;13.926;2022-08-24T09:12:14;97683.69;;;27.73;100.00
52983;BME280;48698;45.736;13.926;2022-08-24T09:17:32;97679.06;;;27.05;100.00
52983;BME280;48698;45.736;13.926;2022-08-24T11:14:22;97591.94;;;29.94;89.46
52983;BME280;48698;45.736;13.926;2022-08-24T11:40:42;97581.16;;;29.37;100.00
52983;BME280;48698;45.736;13.926;2022-08-24T11:46:13;97586.84;;;29.35;100.00
52983;BME280;48698;45.736;13.926;2022-08-24T12:01:55;97542.56;;;28.47;100.00
52983;BME280;48698;45.736;13.926;2022-08-24T12:12:28;97545.94;;;28.13;100.00
52983;BME280;48698;45.736;13.926;2022-08-24T12:17:54;97589.88;;;28.33;100.00
52983;BME280;48698;45.736;13.926;2022-08-24T12:23:06;97595.19;;;28.55;100.00
52983;BME280;48698;45.736;13.926;2022-08-24T12:28:13;97557.19;;;28.24;100.00
52983;BME280;48698;45.736;13.926;2022-08-24T12:33:27;97596.25;;;28.69;100.00
52983;BME280;48698;45.736;13.926;2022-08-24T12:38:34;97546.84;;;28.70;100.00
52983;BME280;48698;45.736;13.926;2022-08-24T12:43:57;97499.13;;;28.16;100.00
52983;BME280;48698;45.736;13.926;2022-08-24T12:49:29;97539.47;;;28.50;100.00
52983;BME280;48698;45.736;13.926;2022-08-24T12:54:49;97570.00;;;28.74;100.00
52983;BME280;48698;45.736;13.926;2022-08-24T13:00:06;97571.75;;;28.97;100.00
52983;BME280;48698;45.736;13.926;2022-08-24T13:05:16;97580.28;;;28.94;100.00
52983;BME280;48698;45.736;13.926;2022-08-24T13:25:59;97576.63;;;28.65;100.00
52983;BME280;48698;45.736;13.926;2022-08-24T13:41:46;97510.84;;;28.31;100.00
52983;BME280;48698;45.736;13.926;2022-08-24T13:47:07;97507.50;;;28.86;100.00
52983;BME280;48698;45.736;13.926;2022-08-24T13:52:30;97524.81;;;28.93;100.00
52983;BME280;48698;45.736;13.926;2022-08-24T14:03:11;97574.41;;;29.33;100.00
52983;BME280;48698;45.736;13.926;2022-08-24T14:18:40;97559.31;;;29.71;100.00
52983;BME280;48698;45.736;13.926;2022-08-24T14:24:03;97561.88;;;29.45;100.00
52983;BME280;48698;45.736;13.926;2022-08-24T14:40:22;97531.03;;;29.30;100.00
52983;BME280;48698;45.736;13.926;2022-08-24T14:45:45;97547.34;;;29.44;100.00
52983;BME280;48698;45.736;13.926;2022-08-24T14:51:02;97535.59;;;29.01;100.00
52983;BME280;48698;45.736;13.926;2022-08-24T15:01:48;97539.97;;;29.23;100.00
52983;BME280;48698;45.736;13.926;2022-08-24T15:07:17;97496.56;;;28.86;100.00
52983;BME280;48698;45.736;13.926;2022-08-24T15:12:38;97535.97;;;29.19;100.00
52983;BME280;48698;45.736;13.926;2022-08-24T15:18:34;97538.19;;;29.09;100.00
52983;BME280;48698;45.736;13.926;2022-08-24T15:23:49;97544.75;;;29.15;100.00
52983;BME280;48698;45.736;13.926;2022-08-24T15:28:54;97357.13;;;27.95;100.00
52983;BME280;48698;45.736;13.926;2022-08-24T15:34:02;97543.78;;;29.22;100.00
52983;BME280;48698;45.736;13.926;2022-08-24T15:39:06;97554.34;;;28.83;100.00
52983;BME280;48698;45.736;13.926;2022-08-24T15:44:21;97519.56;;;28.56;100.00
52983;BME280;48698;45.736;13.926;2022-08-24T15:49:49;97533.47;;;28.97;100.00
52983;BME280;48698;45.736;13.926;2022-08-24T15:54:59;97428.94;;;28.31;100.00
52983;BME280;48698;45.736;13.926;2022-08-24T16:00:12;97558.69;;;28.99;100.00
52983;BME280;48698;45.736;13.926;2022-08-24T16:05:34;97557.72;;;28.85;100.00
52983;BME280;48698;45.736;13.926;2022-08-24T16:10:50;97532.03;;;28.44;100.00
52983;BME280;48698;45.736;13.926;2022-08-24T16:16:11;97556.56;;;28.73;100.00
52983;BME280;48698;45.736;13.926;2022-08-24T16:21:32;97555.25;;;28.90;100.00
52983;BME280;48698;45.736;13.926;2022-08-24T16:31:50;97548.44;;;28.65;100.00
52983;BME280;48698;45.736;13.926;2022-08-24T16:36:57;97526.91;;;28.55;100.00
52983;BME280;48698;45.736;13.926;2022-08-24T16:42:05;97567.38;;;29.02;100.00
52983;BME280;48698;45.736;13.926;2022-08-24T16:47:10;97516.53;;;28.30;100.00
52983;BME280;48698;45.736;13.926;2022-08-24T16:52:13;97564.22;;;28.48;100.00
52983;BME280;48698;45.736;13.926;2022-08-24T16:57:22;97569.75;;;28.34;100.00
52983;BME280;48698;45.736;13.926;2022-08-24T17:02:26;97553.59;;;28.39;100.00
52983;BME280;48698;45.736;13.926;2022-08-24T17:07:30;97482.78;;;27.43;100.00
52983;BME280;48698;45.736;13.926;2022-08-24T17:12:34;97583.03;;;27.18;100.00
52983;BME280;48698;45.736;13.926;2022-08-24T17:17:39;97555.91;;;27.02;100.00
52983;BME280;48698;45.736;13.926;2022-08-24T17:22:42;97586.88;;;26.55;100.00
52983;BME280;48698;45.736;13.926;2022-08-24T17:27:46;97595.38;;;26.60;100.00
52983;BME280;48698;45.736;13.926;2022-08-24T17:32:50;97590.63;;;26.15;100.00
52983;BME280;48698;45.736;13.926;2022-08-24T17:37:54;97403.66;;;25.62;100.00
52983;BME280;48698;45.736;13.926;2022-08-24T17:42:59;97575.50;;;25.74;100.00
52983;BME280;48698;45.736;13.926;2022-08-24T17:48:03;97508.94;;;25.38;100.00
52983;BME280;48698;45.736;13.926;2022-08-24T17:53:06;97569.09;;;25.35;100.00
52983;BME280;48698;45.736;13.926;2022-08-24T17:58:10;97564.66;;;25.26;100.00
52983;BME280;48698;45.736;13.926;2022-08-24T18:03:14;97550.91;;;24.62;100.00
52983;BME280;48698;45.736;13.926;2022-08-24T18:08:17;97607.25;;;24.77;100.00
52983;BME280;48698;45.736;13.926;2022-08-24T18:13:22;97429.03;;;23.53;100.00
52983;BME280;48698;45.736;13.926;2022-08-24T18:18:28;97613.25;;;24.88;100.00
52983;BME280;48698;45.736;13.926;2022-08-24T18:23:33;97588.75;;;24.56;100.00
52983;BME280;48698;45.736;13.926;2022-08-24T18:28:45;97646.03;;;24.45;100.00
52983;BME280;48698;45.736;13.926;2022-08-24T18:33:48;97532.91;;;24.03;100.00
52983;BME280;48698;45.736;13.926;2022-08-24T18:38:52;97471.69;;;23.43;100.00
52983;BME280;48698;45.736;13.926;2022-08-24T18:43:55;97649.75;;;24.44;100.00
52983;BME280;48698;45.736;13.926;2022-08-24T18:48:59;97648.81;;;23.93;100.00
52983;BME280;48698;45.736;13.926;2022-08-24T18:54:12;97659.06;;;24.07;100.00
52983;BME280;48698;45.736;13.926;2022-08-24T18:59:19;97683.44;;;23.74;100.00
52983;BME280;48698;45.736;13.926;2022-08-24T19:04:23;97677.91;;;23.83;100.00
52983;BME280;48698;45.736;13.926;2022-08-24T19:09:34;97678.00;;;23.65;100.00
52983;BME280;48698;45.736;13.926;2022-08-24T19:14:37;97666.38;;;23.81;100.00
52983;BME280;48698;45.736;13.926;2022-08-24T19:19:47;97678.97;;;23.90;100.00
52983;BME280;48698;45.736;13.926;2022-08-24T19:24:51;97681.88;;;24.14;100.00
52983;BME280;48698;45.736;13.926;2022-08-24T19:29:54;97694.66;;;24.30;100.00
52983;BME280;48698;45.736;13.926;2022-08-24T19:34:58;97679.56;;;24.28;100.00
52983;BME280;48698;45.736;13.926;2022-08-24T19:40:02;97676.53;;;24.31;100.00
52983;BME280;48698;45.736;13.926;2022-08-24T19:45:07;97677.19;;;24.25;100.00
52983;BME280;48698;45.736;13.926;2022-08-24T19:50:29;97613.16;;;23.80;100.00
52983;BME280;48698;45.736;13.926;2022-08-24T19:55:36;97465.78;;;22.96;100.00
52983;BME280;48698;45.736;13.926;2022-08-24T20:00:43;97694.47;;;24.24;100.00
52983;BME280;48698;45.736;13.926;2022-08-24T20:05:53;97652.56;;;23.92;100.00
52983;BME280;48698;45.736;13.926;2022-08-24T20:10:56;97634.63;;;23.74;100.00
52983;BME280;48698;45.736;13.926;2022-08-24T20:16:06;97694.34;;;24.07;100.00
52983;BME280;48698;45.736;13.926;2022-08-24T20:21:12;97593.09;;;23.22;100.00
52983;BME280;48698;45.736;13.926;2022-08-24T20:26:15;97644.06;;;23.61;100.00
52983;BME280;48698;45.736;13.926;2022-08-24T20:31:20;97651.03;;;23.64;100.00
52983;BME280;48698;45.736;13.926;2022-08-24T20:36:35;97699.31;;;23.86;100.00
52983;BME280;48698;45.736;13.926;2022-08-24T20:41:39;97669.31;;;23.62;100.00
52983;BME280;48698;45.736;13.926;2022-08-24T20:46:43;97699.19;;;23.70;100.00
52983;BME280;48698;45.736;13.926;2022-08-24T20:51:48;97712.59;;;23.72;100.00
52983;BME280;48698;45.736;13.926;2022-08-24T20:56:51;97709.00;;;23.63;100.00
52983;BME280;48698;45.736;13.926;2022-08-24T21:01:54;97646.22;;;23.14;100.00
52983;BME280;48698;45.736;13.926;2022-08-24T21:06:57;97673.06;;;23.26;100.00
52983;BME280;48698;45.736;13.926;2022-08-24T21:12:01;97716.28;;;23.45;100.00
52983;BME280;48698;45.736;13.926;2022-08-24T21:17:04;97716.34;;;23.35;100.00
52983;BME280;48698;45.736;13.926;2022-08-24T21:22:08;97720.91;;;23.35;100.00
52983;BME280;48698;45.736;13.926;2022-08-24T21:27:11;97658.13;;;23.04;100.00
52983;BME280;48698;45.736;13.926;2022-08-24T21:32:14;97716.78;;;23.31;100.00
52983;BME280;48698;45.736;13.926;2022-08-24T21:37:36;97700.53;;;23.31;100.00
52983;BME280;48698;45.736;13.926;2022-08-24T21:42:40;97681.97;;;23.00;100.00
52983;BME280;48698;45.736;13.926;2022-08-24T21:47:44;97653.72;;;22.85;100.00
52983;BME280;48698;45.736;13.926;2022-08-24T21:52:47;97699.41;;;23.15;100.00
52983;BME280;48698;45.736;13.926;2022-08-24T21:57:54;97663.94;;;22.91;100.00
52983;BME280;48698;45.736;13.926;2022-08-24T22:02:58;97684.91;;;23.07;100.00
52983;BME280;48698;45.736;13.926;2022-08-24T22:08:02;97689.31;;;22.90;100.00
52983;BME280;48698;45.736;13.926;2022-08-24T22:13:06;97694.91;;;23.06;100.00
52983;BME280;48698;45.736;13.926;2022-08-24T22:18:10;97692.34;;;23.05;100.00
52983;BME280;48698;45.736;13.926;2022-08-24T22:23:13;97688.00;;;22.94;100.00
52983;BME280;48698;45.736;13.926;2022-08-24T22:28:17;97691.03;;;22.91;100.00
52983;BME280;48698;45.736;13.926;2022-08-24T22:33:20;97625.25;;;22.63;100.00
52983;BME280;48698;45.736;13.926;2022-08-24T22:38:23;97646.38;;;22.78;100.00
52983;BME280;48698;45.736;13.926;2022-08-24T22:43:27;97677.03;;;22.96;100.00
52983;BME280;48698;45.736;13.926;2022-08-24T22:48:53;97646.13;;;22.71;100.00
52983;BME280;48698;45.736;13.926;2022-08-24T22:53:57;97656.66;;;22.74;100.00
52983;BME280;48698;45.736;13.926;2022-08-24T22:59:00;97677.97;;;22.87;100.00
52983;BME280;48698;45.736;13.926;2022-08-24T23:04:09;97671.53;;;22.70;100.00
52983;BME280;48698;45.736;13.926;2022-08-24T23:09:12;97671.22;;;22.73;100.00
52983;BME280;48698;45.736;13.926;2022-08-24T23:14:17;97666.59;;;22.83;100.00
52983;BME280;48698;45.736;13.926;2022-08-24T23:19:23;97676.00;;;22.79;100.00
52983;BME280;48698;45.736;13.926;2022-08-24T23:24:46;97672.38;;;22.61;100.00
52983;BME280;48698;45.736;13.926;2022-08-24T23:29:49;97617.03;;;22.10;100.00
52983;BME280;48698;45.736;13.926;2022-08-24T23:34:56;97660.28;;;22.38;100.00
52983;BME280;48698;45.736;13.926;2022-08-24T23:39:59;97675.31;;;22.50;100.00
52983;BME280;48698;45.736;13.926;2022-08-24T23:45:04;97621.91;;;22.25;100.00
52983;BME280;48698;45.736;13.926;2022-08-24T23:50:13;97638.31;;;22.23;100.00
52983;BME280;48698;45.736;13.926;2022-08-24T23:55:16;97642.44;;;22.17;100.00
